createdAt,value
2018-06-01T00:01:23.828Z,6.97
2018-06-01T00:03:52.923Z,10.23
2018-06-01T00:06:21.904Z,8.53
2018-06-01T00:08:50.129Z,5.50
2018-06-01T00:11:19.123Z,8.50
2018-06-01T00:13:48.133Z,10.40
2018-06-01T00:16:17.129Z,6.73
2018-06-01T00:18:46.129Z,9.30
2018-06-01T00:21:15.113Z,6.63
2018-06-01T00:23:43.325Z,13.23
2018-06-01T00:26:12.307Z,8.00
2018-06-01T00:28:40.516Z,5.83
2018-06-01T00:31:08.823Z,8.43
2018-06-01T00:33:37.802Z,8.80
2018-06-01T00:36:06.022Z,8.67
2018-06-01T00:38:34.229Z,10.20
2018-06-01T00:41:02.457Z,6.83
2018-06-01T00:43:30.717Z,8.53
2018-06-01T00:45:58.943Z,5.87
2018-06-01T00:48:27.150Z,7.17
2018-06-01T00:50:56.134Z,8.47
2018-06-01T00:53:24.357Z,8.87
2018-06-01T00:55:52.598Z,6.33
2018-06-01T00:58:20.810Z,7.17
2018-06-01T01:00:49.809Z,8.30
2018-06-01T01:03:18.033Z,8.73
2018-06-01T01:05:46.269Z,9.93
2018-06-01T01:08:14.538Z,11.37
2018-06-01T01:10:42.771Z,6.00
2018-06-01T01:13:11.776Z,11.43
2018-06-01T01:15:40.769Z,7.23
2018-06-01T01:18:08.981Z,7.97
2018-06-01T01:20:37.971Z,9.13
2018-06-01T01:23:06.953Z,7.23
2018-06-01T01:25:35.180Z,7.97
2018-06-01T01:28:04.177Z,7.13
2018-06-01T01:30:33.167Z,6.90
2018-06-01T01:33:01.406Z,7.37
2018-06-01T01:35:29.620Z,8.00
2018-06-01T01:37:57.841Z,9.27
2018-06-01T01:40:26.829Z,7.50
2018-06-01T01:42:55.085Z,9.57
2018-06-01T01:45:23.315Z,9.87
2018-06-01T01:47:51.537Z,8.40
2018-06-01T01:50:19.764Z,8.73
2018-06-01T01:52:48.007Z,7.97
2018-06-01T01:55:16.321Z,8.70
2018-06-01T01:57:44.539Z,7.50
2018-06-01T02:00:12.763Z,6.20
2018-06-01T02:02:41.753Z,8.23
2018-06-01T02:05:09.984Z,7.80
2018-06-01T02:07:38.210Z,9.07
2018-06-01T02:10:06.421Z,7.27
2018-06-01T02:12:35.422Z,8.37
2018-06-01T02:15:03.645Z,6.57
2018-06-01T02:17:31.872Z,7.47
2018-06-01T02:20:00.078Z,6.13
2018-06-01T02:22:28.305Z,11.90
2018-06-01T02:24:56.529Z,11.30
2018-06-01T02:27:24.752Z,8.67
2018-06-01T02:29:52.977Z,10.03
2018-06-01T02:32:21.205Z,6.53
2018-06-01T02:34:49.447Z,5.77
2018-06-01T02:37:17.707Z,7.20
2018-06-01T02:39:46.716Z,10.80
2018-06-01T02:42:15.705Z,7.67
2018-06-01T02:44:43.939Z,7.10
2018-06-01T02:47:12.161Z,7.97
2018-06-01T02:49:40.375Z,7.83
2018-06-01T02:52:08.594Z,9.77
2018-06-01T02:54:36.820Z,11.60
2018-06-01T02:57:05.150Z,6.50
2018-06-01T02:59:34.139Z,10.37
2018-06-01T03:02:02.370Z,9.60
2018-06-01T03:04:30.589Z,10.50
2018-06-01T03:07:18.606Z,10.20
2018-06-01T03:09:46.899Z,10.03
2018-06-01T03:12:15.112Z,7.70
2018-06-01T03:14:43.330Z,9.90
2018-06-01T03:17:11.542Z,6.27
2018-06-01T03:19:40.520Z,7.00
2018-06-01T03:22:08.737Z,11.77
2018-06-01T03:24:36.966Z,11.43
2018-06-01T03:27:05.174Z,9.67
2018-06-01T03:29:33.441Z,10.77
2018-06-01T03:32:01.673Z,7.37
2018-06-01T03:34:29.881Z,9.93
2018-06-01T03:36:58.141Z,10.67
2018-06-01T03:39:26.361Z,12.00
2018-06-01T03:41:54.604Z,8.47
2018-06-01T03:44:22.894Z,9.43
2018-06-01T03:46:51.103Z,8.20
2018-06-01T03:49:19.318Z,10.97
2018-06-01T03:51:47.569Z,8.63
2018-06-01T03:54:15.814Z,11.23
2018-06-01T03:56:44.050Z,9.27
2018-06-01T03:59:12.345Z,16.43
2018-06-01T04:01:41.333Z,11.80
2018-06-01T04:04:09.576Z,9.83
2018-06-01T04:06:37.784Z,7.80
2018-06-01T04:09:06.021Z,11.63
2018-06-01T04:11:35.005Z,7.37
2018-06-01T04:14:03.226Z,9.47
2018-06-01T04:16:31.449Z,6.00
2018-06-01T04:19:00.478Z,9.20
2018-06-01T04:21:28.701Z,8.23
2018-06-01T04:23:57.677Z,9.17
2018-06-01T04:26:25.913Z,12.37
2018-06-01T04:28:54.161Z,10.50
2018-06-01T04:31:22.468Z,10.00
2018-06-01T04:33:50.717Z,9.03
2018-06-01T04:36:18.973Z,9.60
2018-06-01T04:38:47.207Z,11.47
2018-06-01T04:41:15.438Z,9.27
2018-06-01T04:43:43.689Z,10.57
2018-06-01T04:46:12.999Z,7.77
2018-06-01T04:48:41.229Z,8.70
2018-06-01T04:51:09.453Z,13.93
2018-06-01T04:53:37.681Z,9.80
2018-06-01T04:56:06.719Z,9.40
2018-06-01T04:58:34.972Z,10.13
2018-06-01T05:01:03.172Z,9.30
2018-06-01T05:03:32.150Z,10.50
2018-06-01T05:06:00.385Z,7.47
2018-06-01T05:08:28.616Z,13.70
2018-06-01T05:10:56.837Z,10.17
2018-06-01T05:13:25.830Z,8.97
2018-06-01T05:15:54.112Z,11.07
2018-06-01T05:18:22.353Z,10.77
2018-06-01T05:20:50.606Z,11.07
2018-06-01T05:23:19.705Z,11.63
2018-06-01T05:25:48.065Z,8.53
2018-06-01T05:28:16.392Z,10.43
2018-06-01T05:30:44.580Z,9.17
2018-06-01T05:33:13.598Z,10.00
2018-06-01T05:35:42.575Z,9.00
2018-06-01T05:38:10.817Z,12.97
2018-06-01T05:40:39.045Z,11.33
2018-06-01T05:43:07.281Z,8.30
2018-06-01T05:45:35.519Z,16.83
2018-06-01T05:48:03.810Z,12.30
2018-06-01T05:50:32.047Z,14.13
2018-06-01T05:53:00.273Z,12.07
2018-06-01T05:55:28.517Z,10.50
2018-06-01T05:57:57.490Z,10.30
2018-06-01T06:00:25.744Z,10.43
2018-06-01T06:02:53.973Z,8.97
2018-06-01T06:05:22.965Z,9.53
2018-06-01T06:07:51.257Z,11.93
2018-06-01T06:10:20.258Z,8.40
2018-06-01T06:12:48.512Z,10.87
2018-06-01T06:15:16.813Z,14.20
2018-06-01T06:17:45.062Z,11.50
2018-06-01T06:20:13.261Z,10.57
2018-06-01T06:22:41.509Z,11.93
2018-06-01T06:25:11.238Z,10.97
2018-06-01T06:27:40.249Z,17.10
2018-06-01T06:30:09.261Z,10.43
2018-06-01T06:32:37.458Z,10.57
2018-06-01T06:35:06.450Z,9.10
2018-06-01T06:37:35.492Z,8.30
2018-06-01T06:40:03.658Z,8.50
2018-06-01T06:42:31.893Z,8.27
2018-06-01T06:45:00.296Z,18.17
2018-06-01T06:47:28.483Z,13.13
2018-06-01T06:49:56.736Z,10.67
2018-06-01T06:52:25.013Z,8.47
2018-06-01T06:54:53.289Z,14.20
2018-06-01T06:57:22.298Z,11.43
2018-06-01T06:59:50.561Z,13.73
2018-06-01T07:02:18.801Z,11.13
2018-06-01T07:04:47.051Z,10.57
2018-06-01T07:07:16.045Z,15.80
2018-06-01T07:09:44.271Z,11.50
2018-06-01T07:12:12.534Z,11.60
2018-06-01T07:14:41.516Z,7.43
2018-06-01T07:17:09.755Z,12.80
2018-06-01T07:19:37.984Z,9.30
2018-06-01T07:22:06.197Z,9.80
2018-06-01T07:24:35.278Z,9.77
2018-06-01T07:27:03.457Z,9.87
2018-06-01T07:29:31.685Z,9.37
2018-06-01T07:32:00.715Z,13.00
2018-06-01T07:34:29.685Z,7.80
2018-06-01T07:36:58.671Z,8.73
2018-06-01T07:39:26.893Z,10.27
2018-06-01T07:41:55.866Z,9.30
2018-06-01T07:44:24.139Z,8.43
2018-06-01T07:46:52.399Z,6.73
2018-06-01T07:49:21.400Z,8.20
2018-06-01T07:51:49.668Z,8.40
2018-06-01T07:54:18.795Z,9.63
2018-06-01T07:56:47.872Z,11.97
2018-06-01T07:59:16.078Z,10.70
2018-06-01T08:01:44.341Z,10.07
2018-06-01T08:04:12.636Z,11.20
2018-06-01T08:06:41.633Z,9.73
2018-06-01T08:09:09.887Z,15.50
2018-06-01T08:11:38.134Z,11.03
2018-06-01T08:14:07.117Z,8.27
2018-06-01T08:16:35.422Z,9.13
2018-06-01T08:19:04.407Z,8.17
2018-06-01T08:21:32.631Z,10.20
2018-06-01T08:24:00.913Z,13.63
2018-06-01T08:26:29.899Z,12.23
2018-06-01T08:28:58.133Z,18.30
2018-06-01T08:31:26.378Z,16.23
2018-06-01T08:33:54.649Z,16.07
2018-06-01T08:36:22.942Z,4.77
2018-06-01T08:38:51.171Z,9.80
2018-06-01T08:41:19.487Z,8.67
2018-06-01T08:43:48.529Z,3.93
2018-06-01T08:46:16.785Z,12.13
2018-06-01T08:48:45.027Z,10.57
2018-06-01T08:51:14.020Z,8.60
2018-06-01T08:53:42.241Z,6.80
2018-06-01T08:56:10.452Z,8.60
2018-06-01T08:58:38.664Z,5.40
2018-06-01T09:01:06.891Z,16.77
2018-06-01T09:03:35.970Z,10.57
2018-06-01T09:06:04.188Z,9.43
2018-06-01T09:08:32.401Z,10.57
2018-06-01T09:11:00.638Z,6.83
2018-06-01T09:13:28.847Z,9.37
2018-06-01T09:15:57.844Z,7.80
2018-06-01T09:18:26.836Z,4.07
2018-06-01T09:20:55.086Z,10.43
2018-06-01T09:23:23.326Z,7.67
2018-06-01T09:25:52.356Z,3.60
2018-06-01T09:28:20.722Z,11.03
2018-06-01T09:30:48.948Z,6.57
2018-06-01T09:33:17.190Z,6.00
2018-06-01T09:35:45.422Z,7.70
2018-06-01T09:38:13.644Z,12.47
2018-06-01T09:40:41.874Z,3.80
2018-06-01T09:43:10.849Z,3.70
2018-06-01T09:45:39.641Z,6.53
2018-06-01T09:48:07.862Z,6.37
2018-06-01T09:50:36.856Z,9.03
2018-06-01T09:53:05.101Z,6.70
2018-06-01T09:55:34.031Z,9.17
2018-06-01T09:58:02.202Z,10.20
2018-06-01T10:00:36.653Z,11.87
2018-06-01T10:03:05.081Z,3.90
2018-06-01T10:05:33.337Z,7.63
2018-06-01T10:08:02.317Z,11.67
2018-06-01T10:10:37.730Z,5.03
2018-06-01T10:13:07.273Z,7.50
2018-06-01T10:15:35.582Z,8.73
2018-06-01T10:18:03.831Z,6.97
2018-06-01T10:20:35.734Z,11.83
2018-06-01T10:23:03.983Z,11.03
2018-06-01T10:25:34.461Z,7.67
2018-06-01T10:28:02.662Z,9.47
2018-06-01T10:30:31.089Z,8.67
2018-06-01T10:32:59.340Z,6.83
2018-06-01T10:35:28.360Z,6.73
2018-06-01T10:37:57.352Z,10.67
2018-06-01T10:40:25.602Z,4.17
2018-06-01T10:42:53.849Z,5.83
2018-06-01T10:45:22.112Z,4.93
2018-06-01T10:47:51.101Z,8.20
2018-06-01T10:50:19.379Z,12.90
2018-06-01T10:52:47.596Z,7.10
2018-06-01T10:55:15.832Z,7.73
2018-06-01T10:57:44.874Z,9.13
2018-06-01T11:00:13.823Z,7.53
2018-06-01T11:02:42.061Z,13.43
2018-06-01T11:05:11.058Z,9.03
2018-06-01T11:07:39.399Z,6.83
2018-06-01T11:10:07.746Z,8.63
2018-06-01T11:12:36.748Z,12.53
2018-06-01T11:15:05.013Z,4.10
2018-06-01T11:17:33.998Z,6.07
2018-06-01T11:20:02.258Z,8.13
2018-06-01T11:22:32.868Z,7.63
2018-06-01T11:25:02.447Z,4.40
2018-06-01T11:27:30.639Z,4.93
2018-06-01T11:29:58.861Z,11.67
2018-06-01T11:32:27.917Z,4.63
2018-06-01T11:34:56.156Z,9.67
2018-06-01T11:37:25.181Z,5.57
2018-06-01T11:39:54.361Z,16.50
2018-06-01T11:42:24.698Z,18.93
2018-06-01T11:44:53.496Z,10.60
2018-06-01T11:47:22.473Z,8.43
2018-06-01T11:49:50.713Z,8.50
2018-06-01T11:52:18.977Z,10.40
2018-06-01T11:54:47.977Z,7.53
2018-06-01T11:57:16.229Z,7.17
2018-06-01T11:59:45.230Z,7.97
2018-06-01T12:02:13.452Z,5.47
2018-06-01T12:04:42.543Z,9.07
2018-06-01T12:07:10.822Z,10.03
2018-06-01T12:09:39.124Z,8.53
2018-06-01T12:12:07.330Z,10.27
2018-06-01T12:14:36.327Z,10.00
2018-06-01T12:17:04.550Z,6.87
2018-06-01T12:19:32.775Z,10.47
2018-06-01T12:22:00.992Z,12.53
2018-06-01T12:24:29.465Z,8.27
2018-06-01T12:26:57.660Z,7.30
2018-06-01T12:29:25.906Z,6.57
2018-06-01T12:31:54.149Z,8.80
2018-06-01T12:34:22.411Z,10.17
2018-06-01T12:36:50.657Z,6.63
2018-06-01T12:39:19.650Z,5.20
2018-06-01T12:41:48.641Z,5.47
2018-06-01T12:44:16.963Z,16.07
2018-06-01T12:46:45.375Z,14.67
2018-06-01T12:49:13.616Z,8.57
2018-06-01T12:51:42.666Z,13.80
2018-06-01T12:54:10.952Z,13.27
2018-06-01T12:56:39.161Z,8.87
2018-06-01T12:59:07.601Z,9.57
2018-06-01T13:01:36.572Z,11.77
2018-06-01T13:04:04.793Z,9.90
2018-06-01T13:06:33.822Z,9.00
2018-06-01T13:09:02.797Z,9.90
2018-06-01T13:11:31.790Z,9.07
2018-06-01T13:14:00.019Z,11.13
2018-06-01T13:16:28.242Z,8.83
2018-06-01T13:18:56.495Z,11.67
2018-06-01T13:21:24.722Z,14.27
2018-06-01T13:23:52.987Z,7.53
2018-06-01T13:26:21.260Z,10.27
2018-06-01T13:28:50.324Z,10.37
2018-06-01T13:31:18.626Z,10.30
2018-06-01T13:33:46.814Z,5.20
2018-06-01T13:36:15.793Z,18.23
2018-06-01T13:38:44.114Z,6.67
2018-06-01T13:41:12.391Z,9.27
2018-06-01T13:43:40.612Z,5.83
2018-06-01T13:46:08.827Z,17.40
2018-06-01T13:48:37.062Z,11.93
2018-06-01T13:51:05.296Z,10.80
2018-06-01T13:53:33.560Z,4.73
2018-06-01T13:56:02.540Z,15.57
2018-06-01T13:58:30.759Z,4.70
2018-06-01T14:00:59.001Z,5.63
2018-06-01T14:03:27.217Z,10.40
2018-06-01T14:05:56.238Z,12.73
2018-06-01T14:08:24.481Z,5.73
2018-06-01T14:10:52.760Z,8.43
2018-06-01T14:13:21.017Z,8.93
2018-06-01T14:15:49.243Z,11.93
2018-06-01T14:18:17.677Z,6.23
2018-06-01T14:20:46.689Z,5.07
2018-06-01T14:23:14.962Z,13.33
2018-06-01T14:25:43.939Z,6.47
2018-06-01T14:28:12.972Z,4.40
2018-06-01T14:30:42.013Z,6.77
2018-06-01T14:33:10.965Z,9.93
2018-06-01T14:35:39.963Z,6.63
2018-06-01T14:38:08.191Z,4.30
2018-06-01T14:40:37.214Z,6.23
2018-06-01T14:43:05.406Z,5.23
2018-06-01T14:45:33.638Z,5.50
2018-06-01T14:48:01.881Z,8.47
2018-06-01T14:50:30.137Z,5.73
2018-06-01T14:52:59.131Z,5.30
2018-06-01T14:55:27.353Z,5.37
2018-06-01T14:57:55.590Z,8.67
2018-06-01T15:00:24.728Z,6.33
2018-06-01T15:02:52.930Z,8.87
2018-06-01T15:05:21.897Z,6.37
2018-06-01T15:07:50.124Z,12.13
2018-06-01T15:10:18.368Z,5.67
2018-06-01T15:12:46.598Z,11.30
2018-06-01T15:15:14.833Z,8.70
2018-06-01T15:17:43.061Z,10.03
2018-06-01T15:20:12.077Z,11.10
2018-06-01T15:22:40.336Z,5.37
2018-06-01T15:25:08.556Z,9.80
2018-06-01T15:27:37.552Z,11.97
2018-06-01T15:30:05.769Z,9.70
2018-06-01T15:32:34.005Z,12.70
2018-06-01T15:35:02.221Z,10.43
2018-06-01T15:37:30.474Z,12.53
2018-06-01T15:39:58.705Z,6.47
2018-06-01T15:42:26.929Z,10.13
2018-06-01T15:44:55.154Z,9.50
2018-06-01T15:47:24.137Z,15.57
2018-06-01T15:49:52.374Z,11.00
2018-06-01T15:54:54.135Z,9.73
2018-06-01T15:57:23.118Z,5.80
2018-06-01T15:59:51.349Z,8.53
2018-06-01T16:02:20.393Z,9.00
2018-06-01T16:04:48.664Z,9.77
2018-06-01T16:07:16.913Z,12.53
2018-06-01T16:09:45.140Z,10.93
2018-06-01T16:12:13.404Z,9.67
2018-06-01T16:14:43.413Z,15.30
2018-06-01T16:17:11.690Z,13.37
2018-06-01T16:19:40.733Z,14.43
2018-06-01T16:22:09.779Z,10.40
2018-06-01T16:24:38.025Z,10.77
2018-06-01T16:27:07.023Z,9.13
2018-06-01T16:29:35.233Z,16.63
2018-06-01T16:32:03.490Z,15.60
2018-06-01T16:34:31.820Z,7.40
2018-06-01T16:37:00.045Z,7.33
2018-06-01T16:39:28.273Z,5.37
2018-06-01T16:41:57.251Z,10.00
2018-06-01T16:44:25.512Z,10.27
2018-06-01T16:46:54.493Z,12.17
2018-06-01T16:49:22.715Z,8.37
2018-06-01T16:51:51.043Z,5.37
2018-06-01T16:54:19.284Z,5.60
2018-06-01T16:56:47.515Z,9.90
2018-06-01T16:59:15.752Z,6.60
2018-06-01T17:01:43.993Z,5.30
2018-06-01T17:04:13.751Z,13.70
2018-06-01T17:06:42.064Z,11.33
2018-06-01T17:09:12.089Z,6.27
2018-06-01T17:11:40.939Z,5.97
2018-06-01T17:14:10.175Z,9.73
2018-06-01T17:16:38.381Z,9.03
2018-06-01T17:19:06.606Z,7.53
2018-06-01T17:21:34.829Z,7.50
2018-06-01T17:24:03.813Z,4.73
2018-06-01T17:26:32.038Z,5.40
2018-06-01T17:29:00.262Z,8.87
2018-06-01T17:31:28.478Z,9.47
2018-06-01T17:33:56.774Z,8.57
2018-06-01T17:36:25.757Z,8.73
2018-06-01T17:38:54.048Z,7.13
2018-06-01T17:41:22.231Z,5.23
2018-06-01T17:43:50.466Z,7.67
2018-06-01T17:46:18.678Z,7.53
2018-06-01T17:48:47.627Z,5.53
2018-06-01T17:51:16.154Z,4.93
2018-06-01T17:53:45.176Z,4.90
2018-06-01T17:56:13.409Z,5.50
2018-06-01T17:58:41.642Z,6.43
2018-06-01T18:01:09.941Z,5.27
2018-06-01T18:03:38.186Z,9.17
2018-06-01T18:06:06.390Z,5.50
2018-06-01T18:08:35.377Z,9.00
2018-06-01T18:11:03.588Z,5.50
2018-06-01T18:13:32.310Z,9.63
2018-06-01T18:16:00.584Z,11.33
2018-06-01T18:18:28.814Z,53.67
2018-06-01T18:20:57.041Z,51.03
2018-06-01T18:23:26.038Z,49.83
2018-06-01T18:25:54.261Z,40.80
2018-06-01T18:28:22.507Z,45.97
2018-06-01T18:30:50.733Z,40.10
2018-06-01T18:33:18.978Z,70.43
2018-06-01T18:35:47.240Z,6.73
2018-06-01T18:38:15.465Z,22.53
2018-06-01T18:40:43.707Z,25.23
2018-06-01T18:43:11.967Z,20.70
2018-06-01T18:45:40.217Z,17.13
2018-06-01T18:48:08.443Z,18.30
2018-06-01T18:50:36.677Z,17.33
2018-06-01T18:53:04.906Z,13.10
2018-06-01T18:55:33.893Z,16.63
2018-06-01T18:58:02.899Z,11.93
2018-06-01T19:00:31.121Z,14.27
2018-06-01T19:02:59.374Z,13.27
2018-06-01T19:05:27.681Z,14.10
2018-06-01T19:07:56.684Z,12.43
2018-06-01T19:10:25.686Z,14.33
2018-06-01T19:12:54.678Z,25.57
2018-06-01T19:15:22.945Z,18.97
2018-06-01T19:17:51.137Z,21.07
2018-06-01T19:20:19.384Z,21.37
2018-06-01T19:22:47.659Z,34.83
2018-06-01T19:25:16.674Z,36.73
2018-06-01T19:27:44.917Z,34.00
2018-06-01T19:30:13.172Z,14.03
2018-06-01T19:32:41.427Z,36.70
2018-06-01T19:35:10.436Z,27.20
2018-06-01T19:37:38.701Z,35.30
2018-06-01T19:40:06.951Z,29.20
2018-06-01T19:42:36.151Z,26.43
2018-06-01T19:45:05.197Z,19.63
2018-06-01T19:47:33.455Z,22.87
2018-06-01T19:50:02.612Z,15.43
2018-06-01T19:52:31.616Z,12.73
2018-06-01T19:55:00.025Z,12.67
2018-06-01T19:57:29.393Z,9.83
2018-06-01T19:59:57.618Z,9.93
2018-06-01T20:02:26.638Z,7.37
2018-06-01T20:04:55.625Z,7.83
2018-06-01T20:07:24.607Z,6.63
2018-06-01T20:09:52.826Z,7.87
2018-06-01T20:12:21.817Z,9.70
2018-06-01T20:14:50.039Z,10.33
2018-06-01T20:17:18.300Z,8.60
2018-06-01T20:19:46.534Z,8.93
2018-06-01T20:22:14.803Z,10.27
2018-06-01T20:24:43.000Z,10.77
2018-06-01T20:27:11.231Z,11.97
2018-06-01T20:29:39.472Z,10.93
2018-06-01T20:32:07.711Z,16.70
2018-06-01T20:34:35.933Z,11.93
2018-06-01T20:37:04.188Z,10.60
2018-06-01T20:39:32.436Z,10.73
2018-06-01T20:42:00.648Z,10.23
2018-06-01T20:44:28.883Z,10.83
2018-06-01T20:46:57.880Z,14.30
2018-06-01T20:49:26.865Z,14.33
2018-06-01T20:51:55.089Z,12.53
2018-06-01T20:54:23.317Z,9.03
2018-06-01T20:56:51.555Z,11.40
2018-06-01T20:59:20.561Z,15.27
2018-06-01T21:01:48.801Z,10.67
2018-06-01T21:04:17.035Z,10.63
2018-06-01T21:06:46.028Z,10.63
2018-06-01T21:09:14.310Z,15.63
2018-06-01T21:11:42.544Z,14.63
2018-06-01T21:14:10.782Z,15.93
2018-06-01T21:16:39.043Z,12.83
2018-06-01T21:19:07.253Z,13.53
2018-06-01T21:21:35.485Z,12.83
2018-06-01T21:24:03.717Z,15.07
2018-06-01T21:26:31.961Z,13.50
2018-06-01T21:29:00.193Z,16.80
2018-06-01T21:31:28.424Z,16.10
2018-06-01T21:33:56.661Z,12.30
2018-06-01T21:36:24.895Z,11.47
2018-06-01T21:38:53.898Z,13.77
2018-06-01T21:41:22.899Z,13.37
2018-06-01T21:43:51.917Z,12.97
2018-06-01T21:46:20.917Z,13.00
2018-06-01T21:48:49.913Z,12.30
2018-06-01T21:51:18.997Z,13.13
2018-06-01T21:53:47.355Z,13.50
2018-06-01T21:56:15.591Z,13.70
2018-06-01T21:58:43.887Z,14.97
2018-06-01T22:01:12.152Z,14.17
2018-06-01T22:03:40.388Z,14.83
2018-06-01T22:06:08.625Z,14.93
2018-06-01T22:08:36.895Z,14.57
2018-06-01T22:11:05.130Z,15.33
2018-06-01T22:13:34.135Z,17.43
2018-06-01T22:16:03.136Z,15.47
2018-06-01T22:18:31.359Z,15.63
2018-06-01T22:20:59.599Z,15.97
2018-06-01T22:23:27.835Z,15.33
2018-06-01T22:25:56.070Z,15.57
2018-06-01T22:28:24.292Z,15.07
2018-06-01T22:30:53.310Z,16.23
2018-06-01T22:33:21.615Z,15.63
2018-06-01T22:35:50.586Z,17.63
2018-06-01T22:38:19.583Z,17.03
2018-06-01T22:40:47.875Z,16.80
2018-06-01T22:43:16.881Z,17.00
2018-06-01T22:45:45.895Z,18.03
2018-06-01T22:48:14.912Z,17.00
2018-06-01T22:50:43.913Z,19.37
2018-06-01T22:53:12.923Z,18.70
2018-06-01T22:55:41.993Z,19.60
2018-06-01T22:58:10.295Z,20.13
2018-06-01T23:00:41.269Z,19.57
2018-06-01T23:03:09.257Z,28.57
2018-06-01T23:05:37.494Z,23.83
2018-06-01T23:08:05.901Z,23.63
2018-06-01T23:10:34.122Z,24.13
2018-06-01T23:13:03.108Z,27.60
2018-06-01T23:15:32.129Z,27.27
2018-06-01T23:18:00.349Z,25.33
2018-06-01T23:20:28.571Z,25.60
2018-06-01T23:22:56.798Z,25.83
2018-06-01T23:25:25.028Z,25.30
2018-06-01T23:27:54.076Z,25.23
2018-06-01T23:30:23.073Z,23.47
2018-06-01T23:32:51.301Z,25.20
2018-06-01T23:35:19.565Z,24.57
2018-06-01T23:37:48.556Z,28.43
2018-06-01T23:40:16.838Z,23.73
2018-06-01T23:42:45.079Z,24.03
2018-06-01T23:45:13.317Z,23.03
2018-06-01T23:47:41.563Z,21.03
2018-06-01T23:50:09.822Z,21.47
2018-06-01T23:52:38.938Z,19.00
2018-06-01T23:55:07.926Z,25.03
2018-06-01T23:57:36.911Z,19.97
